sensor_id;sensor_type;location;lat;lon;timestamp;temperature;humidity
68051;DHT22;54839;51.364;7.246;2024-02-21T00:02:08;7.90;99.90
68051;DHT22;54839;51.364;7.246;2024-02-21T00:04:33;8.00;99.90
68051;DHT22;54839;51.364;7.246;2024-02-21T00:07:00;7.90;99.90
68051;DHT22;54839;51.364;7.246;2024-02-21T00:09:25;8.00;99.90
68051;DHT22;54839;51.364;7.246;2024-02-21T00:11:51;8.00;99.90
68051;DHT22;54839;51.364;7.246;2024-02-21T00:14:17;8.00;99.90
68051;DHT22;54839;51.364;7.246;2024-02-21T00:16:42;8.10;99.90
68051;DHT22;54839;51.364;7.246;2024-02-21T00:19:08;7.90;99.90
68051;DHT22;54839;51.364;7.246;2024-02-21T00:21:34;7.90;99.90
68051;DHT22;54839;51.364;7.246;2024-02-21T00:23:59;8.00;99.90
68051;DHT22;54839;51.364;7.246;2024-02-21T00:26:25;7.90;99.90
68051;DHT22;54839;51.364;7.246;2024-02-21T00:28:51;8.00;99.90
68051;DHT22;54839;51.364;7.246;2024-02-21T00:31:16;8.00;99.90
68051;DHT22;54839;51.364;7.246;2024-02-21T00:33:42;7.90;99.90
68051;DHT22;54839;51.364;7.246;2024-02-21T00:36:08;7.90;99.90
68051;DHT22;54839;51.364;7.246;2024-02-21T00:38:33;7.90;99.90
68051;DHT22;54839;51.364;7.246;2024-02-21T00:40:59;8.00;99.90
68051;DHT22;54839;51.364;7.246;2024-02-21T00:43:24;8.00;99.90
68051;DHT22;54839;51.364;7.246;2024-02-21T00:45:50;8.00;99.90
68051;DHT22;54839;51.364;7.246;2024-02-21T00:48:16;8.00;99.90
68051;DHT22;54839;51.364;7.246;2024-02-21T00:50:42;7.90;99.90
68051;DHT22;54839;51.364;7.246;2024-02-21T00:53:07;8.00;99.90
68051;DHT22;54839;51.364;7.246;2024-02-21T00:55:33;8.00;99.90
68051;DHT22;54839;51.364;7.246;2024-02-21T00:57:59;8.00;99.90
68051;DHT22;54839;51.364;7.246;2024-02-21T01:00:24;8.00;99.90
68051;DHT22;54839;51.364;7.246;2024-02-21T01:02:50;8.20;99.90
68051;DHT22;54839;51.364;7.246;2024-02-21T01:05:16;8.10;99.90
68051;DHT22;54839;51.364;7.246;2024-02-21T01:07:41;8.00;99.90
68051;DHT22;54839;51.364;7.246;2024-02-21T01:10:07;8.10;99.90
68051;DHT22;54839;51.364;7.246;2024-02-21T01:12:33;8.10;99.90
68051;DHT22;54839;51.364;7.246;2024-02-21T01:14:59;8.10;99.90
68051;DHT22;54839;51.364;7.246;2024-02-21T01:17:24;8.00;99.90
68051;DHT22;54839;51.364;7.246;2024-02-21T01:19:50;8.10;99.90
68051;DHT22;54839;51.364;7.246;2024-02-21T01:22:16;8.10;99.90
68051;DHT22;54839;51.364;7.246;2024-02-21T01:24:41;8.10;99.90
68051;DHT22;54839;51.364;7.246;2024-02-21T01:27:07;8.10;99.90
68051;DHT22;54839;51.364;7.246;2024-02-21T01:29:33;8.10;99.90
68051;DHT22;54839;51.364;7.246;2024-02-21T01:31:58;8.10;99.90
68051;DHT22;54839;51.364;7.246;2024-02-21T01:34:24;8.00;99.90
68051;DHT22;54839;51.364;7.246;2024-02-21T01:36:50;8.10;99.90
68051;DHT22;54839;51.364;7.246;2024-02-21T01:39:15;8.10;99.90
68051;DHT22;54839;51.364;7.246;2024-02-21T01:41:41;8.00;99.90
68051;DHT22;54839;51.364;7.246;2024-02-21T01:44:06;8.00;99.90
68051;DHT22;54839;51.364;7.246;2024-02-21T01:46:32;7.90;99.90
68051;DHT22;54839;51.364;7.246;2024-02-21T01:48:58;7.90;99.90
68051;DHT22;54839;51.364;7.246;2024-02-21T01:51:24;7.90;99.90
68051;DHT22;54839;51.364;7.246;2024-02-21T01:53:51;8.00;99.90
68051;DHT22;54839;51.364;7.246;2024-02-21T01:56:17;8.10;99.90
68051;DHT22;54839;51.364;7.246;2024-02-21T01:58:43;8.00;99.90
68051;DHT22;54839;51.364;7.246;2024-02-21T02:01:12;8.00;99.90
68051;DHT22;54839;51.364;7.246;2024-02-21T02:03:37;8.00;99.90
68051;DHT22;54839;51.364;7.246;2024-02-21T02:06:05;8.00;99.90
68051;DHT22;54839;51.364;7.246;2024-02-21T02:08:32;8.00;99.90
68051;DHT22;54839;51.364;7.246;2024-02-21T02:10:59;8.00;99.90
68051;DHT22;54839;51.364;7.246;2024-02-21T02:13:25;8.00;99.90
68051;DHT22;54839;51.364;7.246;2024-02-21T02:15:51;8.00;99.90
68051;DHT22;54839;51.364;7.246;2024-02-21T02:18:17;7.90;99.90
68051;DHT22;54839;51.364;7.246;2024-02-21T02:20:44;8.00;99.90
68051;DHT22;54839;51.364;7.246;2024-02-21T02:23:11;8.00;99.90
68051;DHT22;54839;51.364;7.246;2024-02-21T02:25:38;8.00;99.90
68051;DHT22;54839;51.364;7.246;2024-02-21T02:28:06;8.10;99.90
68051;DHT22;54839;51.364;7.246;2024-02-21T02:30:32;8.00;99.90
68051;DHT22;54839;51.364;7.246;2024-02-21T02:32:59;8.00;99.90
68051;DHT22;54839;51.364;7.246;2024-02-21T02:35:24;8.00;99.90
68051;DHT22;54839;51.364;7.246;2024-02-21T02:37:50;8.00;99.90
68051;DHT22;54839;51.364;7.246;2024-02-21T02:40:19;8.00;99.90
68051;DHT22;54839;51.364;7.246;2024-02-21T02:42:45;8.00;99.90
68051;DHT22;54839;51.364;7.246;2024-02-21T02:45:11;8.00;99.90
68051;DHT22;54839;51.364;7.246;2024-02-21T02:47:36;8.00;99.90
68051;DHT22;54839;51.364;7.246;2024-02-21T02:50:02;8.00;99.90
68051;DHT22;54839;51.364;7.246;2024-02-21T02:52:28;7.90;99.90
68051;DHT22;54839;51.364;7.246;2024-02-21T02:54:53;8.00;99.90
68051;DHT22;54839;51.364;7.246;2024-02-21T02:57:21;8.00;99.90
68051;DHT22;54839;51.364;7.246;2024-02-21T02:59:50;7.90;99.90
68051;DHT22;54839;51.364;7.246;2024-02-21T03:02:16;7.80;99.90
68051;DHT22;54839;51.364;7.246;2024-02-21T03:04:42;7.90;99.90
68051;DHT22;54839;51.364;7.246;2024-02-21T03:07:08;7.90;99.90
68051;DHT22;54839;51.364;7.246;2024-02-21T03:09:34;7.90;99.90
68051;DHT22;54839;51.364;7.246;2024-02-21T03:11:59;7.80;99.90
68051;DHT22;54839;51.364;7.246;2024-02-21T03:14:28;7.90;99.90
68051;DHT22;54839;51.364;7.246;2024-02-21T03:16:54;7.90;99.90
68051;DHT22;54839;51.364;7.246;2024-02-21T03:19:19;7.70;99.90
68051;DHT22;54839;51.364;7.246;2024-02-21T03:21:45;7.80;99.90
68051;DHT22;54839;51.364;7.246;2024-02-21T03:24:11;7.90;99.90
68051;DHT22;54839;51.364;7.246;2024-02-21T03:26:36;7.80;99.90
68051;DHT22;54839;51.364;7.246;2024-02-21T03:29:06;7.80;99.90
68051;DHT22;54839;51.364;7.246;2024-02-21T03:31:31;7.90;99.90
68051;DHT22;54839;51.364;7.246;2024-02-21T03:33:57;7.80;99.90
68051;DHT22;54839;51.364;7.246;2024-02-21T03:36:22;7.80;99.90
68051;DHT22;54839;51.364;7.246;2024-02-21T03:38:48;7.80;99.90
68051;DHT22;54839;51.364;7.246;2024-02-21T03:41:14;7.80;99.90
68051;DHT22;54839;51.364;7.246;2024-02-21T03:43:39;7.90;99.90
68051;DHT22;54839;51.364;7.246;2024-02-21T03:46:06;7.80;99.90
68051;DHT22;54839;51.364;7.246;2024-02-21T03:48:32;7.90;99.90
68051;DHT22;54839;51.364;7.246;2024-02-21T03:50:58;7.90;99.90
68051;DHT22;54839;51.364;7.246;2024-02-21T03:53:23;7.80;99.90
68051;DHT22;54839;51.364;7.246;2024-02-21T03:55:49;7.80;99.90
68051;DHT22;54839;51.364;7.246;2024-02-21T03:58:15;7.80;99.90
68051;DHT22;54839;51.364;7.246;2024-02-21T04:00:40;7.80;99.90
68051;DHT22;54839;51.364;7.246;2024-02-21T04:03:06;7.80;99.90
68051;DHT22;54839;51.364;7.246;2024-02-21T04:05:32;7.80;99.90
68051;DHT22;54839;51.364;7.246;2024-02-21T04:07:58;7.80;99.90
68051;DHT22;54839;51.364;7.246;2024-02-21T04:10:24;7.90;99.90
68051;DHT22;54839;51.364;7.246;2024-02-21T04:12:50;7.90;99.90
68051;DHT22;54839;51.364;7.246;2024-02-21T04:15:16;7.90;99.90
68051;DHT22;54839;51.364;7.246;2024-02-21T04:17:42;7.90;99.90
68051;DHT22;54839;51.364;7.246;2024-02-21T04:20:14;7.90;99.90
68051;DHT22;54839;51.364;7.246;2024-02-21T04:22:40;7.90;99.90
68051;DHT22;54839;51.364;7.246;2024-02-21T04:25:06;7.90;99.90
68051;DHT22;54839;51.364;7.246;2024-02-21T04:27:32;8.00;99.90
68051;DHT22;54839;51.364;7.246;2024-02-21T04:29:58;7.90;99.90
68051;DHT22;54839;51.364;7.246;2024-02-21T04:32:23;7.90;99.90
68051;DHT22;54839;51.364;7.246;2024-02-21T04:34:49;7.90;99.90
68051;DHT22;54839;51.364;7.246;2024-02-21T04:37:14;7.90;99.90
68051;DHT22;54839;51.364;7.246;2024-02-21T04:39:40;7.90;99.90
68051;DHT22;54839;51.364;7.246;2024-02-21T04:42:06;8.00;99.90
68051;DHT22;54839;51.364;7.246;2024-02-21T04:44:31;7.90;99.90
68051;DHT22;54839;51.364;7.246;2024-02-21T04:46:57;7.90;99.90
68051;DHT22;54839;51.364;7.246;2024-02-21T04:49:23;7.90;99.90
68051;DHT22;54839;51.364;7.246;2024-02-21T04:51:48;8.00;99.90
68051;DHT22;54839;51.364;7.246;2024-02-21T04:54:14;8.00;99.90
68051;DHT22;54839;51.364;7.246;2024-02-21T04:56:39;8.00;99.90
68051;DHT22;54839;51.364;7.246;2024-02-21T04:59:05;7.90;99.90
68051;DHT22;54839;51.364;7.246;2024-02-21T05:01:30;7.90;99.90
68051;DHT22;54839;51.364;7.246;2024-02-21T05:03:56;7.90;99.90
68051;DHT22;54839;51.364;7.246;2024-02-21T05:06:22;8.00;99.90
68051;DHT22;54839;51.364;7.246;2024-02-21T05:08:47;8.00;99.90
68051;DHT22;54839;51.364;7.246;2024-02-21T05:11:13;8.00;99.90
68051;DHT22;54839;51.364;7.246;2024-02-21T05:13:39;8.00;99.90
68051;DHT22;54839;51.364;7.246;2024-02-21T05:16:05;7.90;99.90
68051;DHT22;54839;51.364;7.246;2024-02-21T05:18:32;7.90;99.90
68051;DHT22;54839;51.364;7.246;2024-02-21T05:20:59;8.00;99.90
68051;DHT22;54839;51.364;7.246;2024-02-21T05:23:24;7.90;99.90
68051;DHT22;54839;51.364;7.246;2024-02-21T05:25:50;7.90;99.90
68051;DHT22;54839;51.364;7.246;2024-02-21T05:28:16;8.00;99.90
68051;DHT22;54839;51.364;7.246;2024-02-21T05:30:42;8.00;99.90
68051;DHT22;54839;51.364;7.246;2024-02-21T05:33:08;8.00;99.90
68051;DHT22;54839;51.364;7.246;2024-02-21T05:35:35;7.90;99.90
68051;DHT22;54839;51.364;7.246;2024-02-21T05:38:01;7.90;99.90
68051;DHT22;54839;51.364;7.246;2024-02-21T05:40:31;7.90;99.90
68051;DHT22;54839;51.364;7.246;2024-02-21T05:42:57;7.90;99.90
68051;DHT22;54839;51.364;7.246;2024-02-21T05:45:23;7.80;99.90
68051;DHT22;54839;51.364;7.246;2024-02-21T05:47:48;7.90;99.90
68051;DHT22;54839;51.364;7.246;2024-02-21T05:50:15;7.90;99.90
68051;DHT22;54839;51.364;7.246;2024-02-21T05:52:41;7.80;99.90
68051;DHT22;54839;51.364;7.246;2024-02-21T05:55:13;7.90;99.90
68051;DHT22;54839;51.364;7.246;2024-02-21T05:57:39;7.80;99.90
68051;DHT22;54839;51.364;7.246;2024-02-21T06:00:06;7.90;99.90
68051;DHT22;54839;51.364;7.246;2024-02-21T06:02:31;7.90;99.90
68051;DHT22;54839;51.364;7.246;2024-02-21T06:04:57;7.90;99.90
68051;DHT22;54839;51.364;7.246;2024-02-21T06:07:23;8.00;99.90
68051;DHT22;54839;51.364;7.246;2024-02-21T06:09:48;7.90;99.90
68051;DHT22;54839;51.364;7.246;2024-02-21T06:12:14;7.90;99.90
68051;DHT22;54839;51.364;7.246;2024-02-21T06:14:39;7.90;99.90
68051;DHT22;54839;51.364;7.246;2024-02-21T06:17:05;7.90;99.90
68051;DHT22;54839;51.364;7.246;2024-02-21T06:19:31;8.00;99.90
68051;DHT22;54839;51.364;7.246;2024-02-21T06:21:56;8.00;99.90
68051;DHT22;54839;51.364;7.246;2024-02-21T06:24:22;7.90;99.90
68051;DHT22;54839;51.364;7.246;2024-02-21T06:26:47;7.90;99.90
68051;DHT22;54839;51.364;7.246;2024-02-21T06:29:13;8.00;99.90
68051;DHT22;54839;51.364;7.246;2024-02-21T06:31:40;8.00;99.90
68051;DHT22;54839;51.364;7.246;2024-02-21T06:34:05;7.90;99.90
68051;DHT22;54839;51.364;7.246;2024-02-21T06:36:31;7.90;99.90
68051;DHT22;54839;51.364;7.246;2024-02-21T06:38:58;7.90;99.90
68051;DHT22;54839;51.364;7.246;2024-02-21T06:41:24;8.00;99.90
68051;DHT22;54839;51.364;7.246;2024-02-21T06:43:50;7.90;99.90
68051;DHT22;54839;51.364;7.246;2024-02-21T06:46:26;8.00;99.90
68051;DHT22;54839;51.364;7.246;2024-02-21T06:48:51;8.00;99.90
68051;DHT22;54839;51.364;7.246;2024-02-21T06:51:17;8.00;99.90
68051;DHT22;54839;51.364;7.246;2024-02-21T06:53:43;8.10;99.90
68051;DHT22;54839;51.364;7.246;2024-02-21T06:56:09;8.00;99.90
68051;DHT22;54839;51.364;7.246;2024-02-21T06:58:36;8.10;99.90
68051;DHT22;54839;51.364;7.246;2024-02-21T07:01:02;8.20;99.90
68051;DHT22;54839;51.364;7.246;2024-02-21T07:03:27;8.10;99.90
68051;DHT22;54839;51.364;7.246;2024-02-21T07:05:53;8.10;99.90
68051;DHT22;54839;51.364;7.246;2024-02-21T07:08:18;8.10;99.90
68051;DHT22;54839;51.364;7.246;2024-02-21T07:10:44;8.20;99.90
68051;DHT22;54839;51.364;7.246;2024-02-21T07:13:10;8.30;99.90
68051;DHT22;54839;51.364;7.246;2024-02-21T07:15:35;8.20;99.90
68051;DHT22;54839;51.364;7.246;2024-02-21T07:18:02;8.20;99.90
68051;DHT22;54839;51.364;7.246;2024-02-21T07:20:28;8.20;99.90
68051;DHT22;54839;51.364;7.246;2024-02-21T07:22:54;8.30;99.90
68051;DHT22;54839;51.364;7.246;2024-02-21T07:25:19;8.30;99.90
68051;DHT22;54839;51.364;7.246;2024-02-21T07:27:45;8.30;99.90
68051;DHT22;54839;51.364;7.246;2024-02-21T07:30:11;8.40;99.90
68051;DHT22;54839;51.364;7.246;2024-02-21T07:32:37;8.50;99.90
68051;DHT22;54839;51.364;7.246;2024-02-21T07:35:03;8.50;99.90
68051;DHT22;54839;51.364;7.246;2024-02-21T07:37:28;8.50;99.90
68051;DHT22;54839;51.364;7.246;2024-02-21T07:39:54;8.50;99.90
68051;DHT22;54839;51.364;7.246;2024-02-21T07:42:20;8.50;99.90
68051;DHT22;54839;51.364;7.246;2024-02-21T07:44:45;8.50;99.90
68051;DHT22;54839;51.364;7.246;2024-02-21T07:47:11;8.50;99.90
68051;DHT22;54839;51.364;7.246;2024-02-21T07:49:45;8.40;99.90
68051;DHT22;54839;51.364;7.246;2024-02-21T07:52:11;8.50;99.90
68051;DHT22;54839;51.364;7.246;2024-02-21T07:54:37;8.60;99.90
68051;DHT22;54839;51.364;7.246;2024-02-21T07:57:03;8.50;99.90
68051;DHT22;54839;51.364;7.246;2024-02-21T07:59:29;8.60;99.90
68051;DHT22;54839;51.364;7.246;2024-02-21T08:01:58;8.50;99.90
68051;DHT22;54839;51.364;7.246;2024-02-21T08:04:24;8.50;99.90
68051;DHT22;54839;51.364;7.246;2024-02-21T08:06:53;8.60;99.90
68051;DHT22;54839;51.364;7.246;2024-02-21T08:09:21;8.50;99.90
68051;DHT22;54839;51.364;7.246;2024-02-21T08:11:47;8.60;99.90
68051;DHT22;54839;51.364;7.246;2024-02-21T08:14:12;8.60;99.90
68051;DHT22;54839;51.364;7.246;2024-02-21T08:16:41;8.60;99.90
68051;DHT22;54839;51.364;7.246;2024-02-21T08:19:07;8.70;99.90
68051;DHT22;54839;51.364;7.246;2024-02-21T08:21:32;8.60;99.90
68051;DHT22;54839;51.364;7.246;2024-02-21T08:23:58;8.70;99.90
68051;DHT22;54839;51.364;7.246;2024-02-21T08:26:24;8.50;99.90
68051;DHT22;54839;51.364;7.246;2024-02-21T08:28:52;8.60;99.90
68051;DHT22;54839;51.364;7.246;2024-02-21T08:31:19;8.50;99.90
68051;DHT22;54839;51.364;7.246;2024-02-21T08:33:45;8.50;99.90
68051;DHT22;54839;51.364;7.246;2024-02-21T08:36:20;8.40;99.90
68051;DHT22;54839;51.364;7.246;2024-02-21T08:38:46;8.50;99.90
68051;DHT22;54839;51.364;7.246;2024-02-21T08:41:11;8.50;99.90
68051;DHT22;54839;51.364;7.246;2024-02-21T08:43:37;8.30;99.90
68051;DHT22;54839;51.364;7.246;2024-02-21T08:46:04;8.30;99.90
68051;DHT22;54839;51.364;7.246;2024-02-21T08:48:30;8.30;99.90
68051;DHT22;54839;51.364;7.246;2024-02-21T08:50:55;8.20;99.90
68051;DHT22;54839;51.364;7.246;2024-02-21T08:53:21;8.20;99.90
68051;DHT22;54839;51.364;7.246;2024-02-21T08:55:46;8.20;99.90
68051;DHT22;54839;51.364;7.246;2024-02-21T08:58:12;8.20;99.90
68051;DHT22;54839;51.364;7.246;2024-02-21T09:00:37;8.10;99.90
68051;DHT22;54839;51.364;7.246;2024-02-21T09:03:03;8.10;99.90
68051;DHT22;54839;51.364;7.246;2024-02-21T09:05:29;8.20;99.90
68051;DHT22;54839;51.364;7.246;2024-02-21T09:07:55;8.20;99.90
68051;DHT22;54839;51.364;7.246;2024-02-21T09:10:21;8.30;99.90
68051;DHT22;54839;51.364;7.246;2024-02-21T09:12:46;8.30;99.90
68051;DHT22;54839;51.364;7.246;2024-02-21T09:15:13;8.30;99.90
68051;DHT22;54839;51.364;7.246;2024-02-21T09:17:38;8.30;99.90
68051;DHT22;54839;51.364;7.246;2024-02-21T09:20:05;8.20;99.90
68051;DHT22;54839;51.364;7.246;2024-02-21T09:22:31;8.30;99.90
68051;DHT22;54839;51.364;7.246;2024-02-21T09:25:00;8.40;99.90
68051;DHT22;54839;51.364;7.246;2024-02-21T09:27:25;8.20;99.90
68051;DHT22;54839;51.364;7.246;2024-02-21T09:29:51;8.40;99.90
68051;DHT22;54839;51.364;7.246;2024-02-21T09:32:17;8.30;99.90
68051;DHT22;54839;51.364;7.246;2024-02-21T09:34:44;8.20;99.90
68051;DHT22;54839;51.364;7.246;2024-02-21T09:37:10;8.30;99.90
68051;DHT22;54839;51.364;7.246;2024-02-21T09:39:36;8.30;99.90
68051;DHT22;54839;51.364;7.246;2024-02-21T09:42:05;8.40;99.90
68051;DHT22;54839;51.364;7.246;2024-02-21T09:44:38;8.30;99.90
68051;DHT22;54839;51.364;7.246;2024-02-21T09:47:07;8.40;99.90
68051;DHT22;54839;51.364;7.246;2024-02-21T09:49:35;8.40;99.90
68051;DHT22;54839;51.364;7.246;2024-02-21T09:52:07;8.30;99.90
68051;DHT22;54839;51.364;7.246;2024-02-21T09:54:33;8.30;99.90
68051;DHT22;54839;51.364;7.246;2024-02-21T09:57:03;8.30;99.90
68051;DHT22;54839;51.364;7.246;2024-02-21T09:59:31;8.40;99.90
68051;DHT22;54839;51.364;7.246;2024-02-21T10:01:57;8.40;99.90
68051;DHT22;54839;51.364;7.246;2024-02-21T10:04:25;8.40;99.90
68051;DHT22;54839;51.364;7.246;2024-02-21T10:06:51;8.40;99.90
68051;DHT22;54839;51.364;7.246;2024-02-21T10:09:29;8.40;99.90
68051;DHT22;54839;51.364;7.246;2024-02-21T10:12:08;8.40;99.90
68051;DHT22;54839;51.364;7.246;2024-02-21T10:14:34;8.50;99.90
68051;DHT22;54839;51.364;7.246;2024-02-21T10:17:00;8.40;99.90
68051;DHT22;54839;51.364;7.246;2024-02-21T10:19:26;8.50;99.90
68051;DHT22;54839;51.364;7.246;2024-02-21T10:22:06;8.70;99.90
68051;DHT22;54839;51.364;7.246;2024-02-21T10:24:33;8.50;99.90
68051;DHT22;54839;51.364;7.246;2024-02-21T10:27:09;8.60;99.90
68051;DHT22;54839;51.364;7.246;2024-02-21T10:29:36;8.50;99.90
68051;DHT22;54839;51.364;7.246;2024-02-21T10:32:13;8.50;99.90
68051;DHT22;54839;51.364;7.246;2024-02-21T10:34:40;8.60;99.90
68051;DHT22;54839;51.364;7.246;2024-02-21T10:37:09;8.60;99.90
68051;DHT22;54839;51.364;7.246;2024-02-21T10:39:38;8.80;99.90
68051;DHT22;54839;51.364;7.246;2024-02-21T10:42:04;8.90;99.90
68051;DHT22;54839;51.364;7.246;2024-02-21T10:44:36;9.20;99.90
68051;DHT22;54839;51.364;7.246;2024-02-21T10:47:09;9.20;99.90
68051;DHT22;54839;51.364;7.246;2024-02-21T10:49:39;9.20;99.90
68051;DHT22;54839;51.364;7.246;2024-02-21T10:52:06;9.10;99.90
68051;DHT22;54839;51.364;7.246;2024-02-21T10:54:47;9.20;99.90
68051;DHT22;54839;51.364;7.246;2024-02-21T10:57:15;9.50;99.90
68051;DHT22;54839;51.364;7.246;2024-02-21T10:59:44;10.10;99.90
68051;DHT22;54839;51.364;7.246;2024-02-21T11:02:10;10.10;99.90
68051;DHT22;54839;51.364;7.246;2024-02-21T11:04:36;10.20;99.90
68051;DHT22;54839;51.364;7.246;2024-02-21T11:07:05;10.10;99.90
68051;DHT22;54839;51.364;7.246;2024-02-21T11:09:31;10.00;99.90
68051;DHT22;54839;51.364;7.246;2024-02-21T11:12:04;10.00;99.90
68051;DHT22;54839;51.364;7.246;2024-02-21T11:14:30;10.00;99.90
68051;DHT22;54839;51.364;7.246;2024-02-21T11:17:02;10.30;99.90
68051;DHT22;54839;51.364;7.246;2024-02-21T11:19:29;10.40;99.90
68051;DHT22;54839;51.364;7.246;2024-02-21T11:21:57;10.30;99.90
68051;DHT22;54839;51.364;7.246;2024-02-21T11:26:53;10.40;99.90
68051;DHT22;54839;51.364;7.246;2024-02-21T11:29:23;10.50;99.90
68051;DHT22;54839;51.364;7.246;2024-02-21T11:31:50;10.70;99.90
68051;DHT22;54839;51.364;7.246;2024-02-21T11:34:18;10.60;99.90
68051;DHT22;54839;51.364;7.246;2024-02-21T11:36:48;10.90;99.90
68051;DHT22;54839;51.364;7.246;2024-02-21T11:39:25;11.10;99.90
68051;DHT22;54839;51.364;7.246;2024-02-21T11:42:04;11.20;99.90
68051;DHT22;54839;51.364;7.246;2024-02-21T11:44:31;11.20;99.90
68051;DHT22;54839;51.364;7.246;2024-02-21T11:46:58;11.40;99.90
68051;DHT22;54839;51.364;7.246;2024-02-21T11:49:29;11.00;99.90
68051;DHT22;54839;51.364;7.246;2024-02-21T11:52:02;10.90;99.90
68051;DHT22;54839;51.364;7.246;2024-02-21T11:54:30;10.90;99.90
68051;DHT22;54839;51.364;7.246;2024-02-21T11:56:55;10.80;99.90
68051;DHT22;54839;51.364;7.246;2024-02-21T11:59:21;10.60;99.90
68051;DHT22;54839;51.364;7.246;2024-02-21T12:01:47;10.50;99.90
68051;DHT22;54839;51.364;7.246;2024-02-21T12:04:13;10.70;99.90
68051;DHT22;54839;51.364;7.246;2024-02-21T12:06:39;11.20;99.90
68051;DHT22;54839;51.364;7.246;2024-02-21T12:09:07;11.30;99.90
68051;DHT22;54839;51.364;7.246;2024-02-21T12:11:34;11.40;99.90
68051;DHT22;54839;51.364;7.246;2024-02-21T12:14:03;11.40;99.90
68051;DHT22;54839;51.364;7.246;2024-02-21T12:16:31;11.50;99.90
68051;DHT22;54839;51.364;7.246;2024-02-21T12:19:01;11.10;99.90
68051;DHT22;54839;51.364;7.246;2024-02-21T12:21:30;11.20;99.90
68051;DHT22;54839;51.364;7.246;2024-02-21T12:23:58;11.10;99.90
68051;DHT22;54839;51.364;7.246;2024-02-21T12:26:24;11.30;99.90
68051;DHT22;54839;51.364;7.246;2024-02-21T12:28:50;11.30;99.90
68051;DHT22;54839;51.364;7.246;2024-02-21T12:31:15;11.10;99.90
68051;DHT22;54839;51.364;7.246;2024-02-21T12:33:45;11.10;99.90
68051;DHT22;54839;51.364;7.246;2024-02-21T12:36:10;11.20;99.90
68051;DHT22;54839;51.364;7.246;2024-02-21T12:38:36;11.30;99.90
68051;DHT22;54839;51.364;7.246;2024-02-21T12:41:02;11.30;99.90
68051;DHT22;54839;51.364;7.246;2024-02-21T12:43:28;11.30;99.90
68051;DHT22;54839;51.364;7.246;2024-02-21T12:45:54;11.20;99.90
68051;DHT22;54839;51.364;7.246;2024-02-21T12:48:20;11.40;99.90
68051;DHT22;54839;51.364;7.246;2024-02-21T12:50:49;11.20;99.90
68051;DHT22;54839;51.364;7.246;2024-02-21T12:53:19;11.10;99.90
68051;DHT22;54839;51.364;7.246;2024-02-21T12:55:50;11.20;99.90
68051;DHT22;54839;51.364;7.246;2024-02-21T12:58:16;11.30;99.90
68051;DHT22;54839;51.364;7.246;2024-02-21T13:00:42;11.50;99.90
68051;DHT22;54839;51.364;7.246;2024-02-21T13:03:08;11.60;99.90
68051;DHT22;54839;51.364;7.246;2024-02-21T13:05:37;11.60;99.90
68051;DHT22;54839;51.364;7.246;2024-02-21T13:08:07;11.80;99.90
68051;DHT22;54839;51.364;7.246;2024-02-21T13:10:33;12.00;99.90
68051;DHT22;54839;51.364;7.246;2024-02-21T13:13:02;12.00;99.90
68051;DHT22;54839;51.364;7.246;2024-02-21T13:15:28;12.20;99.90
68051;DHT22;54839;51.364;7.246;2024-02-21T13:17:57;12.10;99.90
68051;DHT22;54839;51.364;7.246;2024-02-21T13:20:23;12.00;99.90
68051;DHT22;54839;51.364;7.246;2024-02-21T13:22:49;12.10;99.90
68051;DHT22;54839;51.364;7.246;2024-02-21T13:25:14;11.90;99.90
68051;DHT22;54839;51.364;7.246;2024-02-21T13:27:43;12.00;99.90
68051;DHT22;54839;51.364;7.246;2024-02-21T13:30:10;11.80;99.90
68051;DHT22;54839;51.364;7.246;2024-02-21T13:32:35;12.30;99.90
68051;DHT22;54839;51.364;7.246;2024-02-21T13:35:01;12.40;99.90
68051;DHT22;54839;51.364;7.246;2024-02-21T13:37:28;11.90;99.90
68051;DHT22;54839;51.364;7.246;2024-02-21T13:39:54;12.00;99.90
68051;DHT22;54839;51.364;7.246;2024-02-21T13:42:20;12.00;99.90
68051;DHT22;54839;51.364;7.246;2024-02-21T13:44:46;12.20;99.90
68051;DHT22;54839;51.364;7.246;2024-02-21T13:47:14;12.10;99.90
68051;DHT22;54839;51.364;7.246;2024-02-21T13:49:40;11.70;99.90
68051;DHT22;54839;51.364;7.246;2024-02-21T13:52:06;11.70;99.90
68051;DHT22;54839;51.364;7.246;2024-02-21T13:54:32;11.80;99.90
68051;DHT22;54839;51.364;7.246;2024-02-21T13:56:57;11.90;99.90
68051;DHT22;54839;51.364;7.246;2024-02-21T13:59:23;11.80;99.90
68051;DHT22;54839;51.364;7.246;2024-02-21T14:01:49;11.90;99.90
68051;DHT22;54839;51.364;7.246;2024-02-21T14:04:14;12.00;99.90
68051;DHT22;54839;51.364;7.246;2024-02-21T14:06:40;11.80;99.90
68051;DHT22;54839;51.364;7.246;2024-02-21T14:09:09;11.60;99.90
68051;DHT22;54839;51.364;7.246;2024-02-21T14:11:35;11.60;99.90
68051;DHT22;54839;51.364;7.246;2024-02-21T14:14:01;11.50;99.90
68051;DHT22;54839;51.364;7.246;2024-02-21T14:16:27;11.70;99.90
68051;DHT22;54839;51.364;7.246;2024-02-21T14:18:52;11.50;99.90
68051;DHT22;54839;51.364;7.246;2024-02-21T14:21:19;11.20;99.90
68051;DHT22;54839;51.364;7.246;2024-02-21T14:23:45;11.30;99.90
68051;DHT22;54839;51.364;7.246;2024-02-21T14:26:11;11.50;99.90
68051;DHT22;54839;51.364;7.246;2024-02-21T14:28:37;11.50;99.90
68051;DHT22;54839;51.364;7.246;2024-02-21T14:31:03;11.40;99.90
68051;DHT22;54839;51.364;7.246;2024-02-21T14:33:31;11.60;99.90
68051;DHT22;54839;51.364;7.246;2024-02-21T14:35:56;11.60;99.90
68051;DHT22;54839;51.364;7.246;2024-02-21T14:38:22;11.70;99.90
68051;DHT22;54839;51.364;7.246;2024-02-21T14:40:48;11.70;99.90
68051;DHT22;54839;51.364;7.246;2024-02-21T14:43:14;11.60;99.90
68051;DHT22;54839;51.364;7.246;2024-02-21T14:45:39;11.50;99.90
68051;DHT22;54839;51.364;7.246;2024-02-21T14:48:06;11.50;99.90
68051;DHT22;54839;51.364;7.246;2024-02-21T14:50:32;11.40;99.90
68051;DHT22;54839;51.364;7.246;2024-02-21T14:52:58;11.40;99.90
68051;DHT22;54839;51.364;7.246;2024-02-21T14:55:23;11.60;99.90
68051;DHT22;54839;51.364;7.246;2024-02-21T14:57:49;11.30;99.90
68051;DHT22;54839;51.364;7.246;2024-02-21T15:00:16;11.40;99.90
68051;DHT22;54839;51.364;7.246;2024-02-21T15:02:41;11.20;99.90
68051;DHT22;54839;51.364;7.246;2024-02-21T15:05:08;11.10;99.90
68051;DHT22;54839;51.364;7.246;2024-02-21T15:07:34;11.10;99.90
68051;DHT22;54839;51.364;7.246;2024-02-21T15:10:00;11.10;99.90
68051;DHT22;54839;51.364;7.246;2024-02-21T15:12:26;11.10;99.90
68051;DHT22;54839;51.364;7.246;2024-02-21T15:14:52;11.10;99.90
68051;DHT22;54839;51.364;7.246;2024-02-21T15:17:17;11.10;99.90
68051;DHT22;54839;51.364;7.246;2024-02-21T15:19:46;11.10;99.90
68051;DHT22;54839;51.364;7.246;2024-02-21T15:22:13;11.10;99.90
68051;DHT22;54839;51.364;7.246;2024-02-21T15:24:40;10.90;99.90
68051;DHT22;54839;51.364;7.246;2024-02-21T15:27:06;11.00;99.90
68051;DHT22;54839;51.364;7.246;2024-02-21T15:29:33;10.90;99.90
68051;DHT22;54839;51.364;7.246;2024-02-21T15:31:59;10.80;99.90
68051;DHT22;54839;51.364;7.246;2024-02-21T15:34:25;10.70;99.90
68051;DHT22;54839;51.364;7.246;2024-02-21T15:36:50;10.70;99.90
68051;DHT22;54839;51.364;7.246;2024-02-21T15:39:16;10.50;99.90
68051;DHT22;54839;51.364;7.246;2024-02-21T15:41:41;10.60;99.90